sensor_id;sensor_type;location;lat;lon;timestamp;temperature;humidity
35804;DHT22;21924;51.934;7.414;2022-11-15T00:01:48;8.50;99.90
35804;DHT22;21924;51.934;7.414;2022-11-15T00:04:33;8.50;99.90
35804;DHT22;21924;51.934;7.414;2022-11-15T00:07:17;8.50;99.90
35804;DHT22;21924;51.934;7.414;2022-11-15T00:10:02;8.50;99.90
35804;DHT22;21924;51.934;7.414;2022-11-15T00:12:46;8.60;99.90
35804;DHT22;21924;51.934;7.414;2022-11-15T00:15:30;8.60;99.90
35804;DHT22;21924;51.934;7.414;2022-11-15T00:18:15;8.60;99.90
35804;DHT22;21924;51.934;7.414;2022-11-15T00:21:05;8.60;99.90
35804;DHT22;21924;51.934;7.414;2022-11-15T00:23:50;8.60;99.90
35804;DHT22;21924;51.934;7.414;2022-11-15T00:26:34;8.60;99.90
35804;DHT22;21924;51.934;7.414;2022-11-15T00:29:18;8.60;99.90
35804;DHT22;21924;51.934;7.414;2022-11-15T00:32:03;8.60;99.90
35804;DHT22;21924;51.934;7.414;2022-11-15T00:34:47;8.60;99.90
35804;DHT22;21924;51.934;7.414;2022-11-15T00:37:31;8.70;99.90
35804;DHT22;21924;51.934;7.414;2022-11-15T00:40:15;8.70;99.90
35804;DHT22;21924;51.934;7.414;2022-11-15T00:43:00;8.60;99.90
35804;DHT22;21924;51.934;7.414;2022-11-15T00:45:44;8.60;99.90
35804;DHT22;21924;51.934;7.414;2022-11-15T00:48:28;8.70;99.90
35804;DHT22;21924;51.934;7.414;2022-11-15T00:51:13;8.70;99.90
35804;DHT22;21924;51.934;7.414;2022-11-15T00:53:57;8.60;99.90
35804;DHT22;21924;51.934;7.414;2022-11-15T00:56:42;8.60;99.90
35804;DHT22;21924;51.934;7.414;2022-11-15T00:59:26;8.60;99.90
35804;DHT22;21924;51.934;7.414;2022-11-15T01:02:10;8.70;99.90
35804;DHT22;21924;51.934;7.414;2022-11-15T01:04:55;8.70;99.90
35804;DHT22;21924;51.934;7.414;2022-11-15T01:07:39;8.70;99.90
35804;DHT22;21924;51.934;7.414;2022-11-15T01:10:23;8.60;99.90
35804;DHT22;21924;51.934;7.414;2022-11-15T01:13:08;8.70;99.90
35804;DHT22;21924;51.934;7.414;2022-11-15T01:15:52;8.70;99.90
35804;DHT22;21924;51.934;7.414;2022-11-15T01:18:36;8.60;99.90
35804;DHT22;21924;51.934;7.414;2022-11-15T01:21:21;8.70;99.90
35804;DHT22;21924;51.934;7.414;2022-11-15T01:24:05;8.70;99.90
35804;DHT22;21924;51.934;7.414;2022-11-15T01:26:50;8.70;99.90
35804;DHT22;21924;51.934;7.414;2022-11-15T01:29:34;8.70;99.90
35804;DHT22;21924;51.934;7.414;2022-11-15T01:32:18;8.70;99.90
35804;DHT22;21924;51.934;7.414;2022-11-15T01:35:03;8.70;99.90
35804;DHT22;21924;51.934;7.414;2022-11-15T01:37:47;8.70;99.90
35804;DHT22;21924;51.934;7.414;2022-11-15T01:40:31;8.70;99.90
35804;DHT22;21924;51.934;7.414;2022-11-15T01:43:44;8.70;99.90
35804;DHT22;21924;51.934;7.414;2022-11-15T01:46:35;8.70;99.90
35804;DHT22;21924;51.934;7.414;2022-11-15T01:49:21;8.70;99.90
35804;DHT22;21924;51.934;7.414;2022-11-15T01:52:10;8.70;99.90
35804;DHT22;21924;51.934;7.414;2022-11-15T01:57:46;8.70;99.90
35804;DHT22;21924;51.934;7.414;2022-11-15T02:00:31;8.80;99.90
35804;DHT22;21924;51.934;7.414;2022-11-15T02:03:16;8.80;99.90
35804;DHT22;21924;51.934;7.414;2022-11-15T02:06:00;8.80;99.90
35804;DHT22;21924;51.934;7.414;2022-11-15T02:08:46;8.80;99.90
35804;DHT22;21924;51.934;7.414;2022-11-15T02:11:30;8.80;99.90
35804;DHT22;21924;51.934;7.414;2022-11-15T02:14:17;8.80;99.90
35804;DHT22;21924;51.934;7.414;2022-11-15T02:17:33;8.90;99.90
35804;DHT22;21924;51.934;7.414;2022-11-15T02:33:35;8.90;99.90
35804;DHT22;21924;51.934;7.414;2022-11-15T02:36:53;9.00;99.90
35804;DHT22;21924;51.934;7.414;2022-11-15T02:42:46;9.00;99.90
35804;DHT22;21924;51.934;7.414;2022-11-15T02:45:56;9.00;99.90
35804;DHT22;21924;51.934;7.414;2022-11-15T02:48:44;9.00;99.90
35804;DHT22;21924;51.934;7.414;2022-11-15T02:51:29;9.00;99.90
35804;DHT22;21924;51.934;7.414;2022-11-15T02:54:29;9.00;99.90
35804;DHT22;21924;51.934;7.414;2022-11-15T02:57:16;9.00;99.90
35804;DHT22;21924;51.934;7.414;2022-11-15T03:00:20;9.10;99.90
35804;DHT22;21924;51.934;7.414;2022-11-15T03:03:23;9.10;99.90
35804;DHT22;21924;51.934;7.414;2022-11-15T03:06:38;9.10;99.90
35804;DHT22;21924;51.934;7.414;2022-11-15T03:12:36;9.20;99.90
35804;DHT22;21924;51.934;7.414;2022-11-15T03:15:31;9.20;99.90
35804;DHT22;21924;51.934;7.414;2022-11-15T03:18:21;9.20;99.90
35804;DHT22;21924;51.934;7.414;2022-11-15T03:21:08;9.20;99.90
35804;DHT22;21924;51.934;7.414;2022-11-15T03:23:54;9.20;99.90
35804;DHT22;21924;51.934;7.414;2022-11-15T03:26:41;9.20;99.90
35804;DHT22;21924;51.934;7.414;2022-11-15T03:29:32;9.20;99.90
35804;DHT22;21924;51.934;7.414;2022-11-15T03:32:20;9.30;99.90
35804;DHT22;21924;51.934;7.414;2022-11-15T03:35:14;9.30;99.90
35804;DHT22;21924;51.934;7.414;2022-11-15T03:38:19;9.30;99.90
35804;DHT22;21924;51.934;7.414;2022-11-15T03:41:08;9.30;99.90
35804;DHT22;21924;51.934;7.414;2022-11-15T03:47:26;9.30;99.90
35804;DHT22;21924;51.934;7.414;2022-11-15T03:50:14;9.40;99.90
35804;DHT22;21924;51.934;7.414;2022-11-15T03:52:59;9.40;99.90
35804;DHT22;21924;51.934;7.414;2022-11-15T03:55:44;9.50;99.90
35804;DHT22;21924;51.934;7.414;2022-11-15T03:58:28;9.50;99.90
35804;DHT22;21924;51.934;7.414;2022-11-15T04:01:13;9.50;99.90
35804;DHT22;21924;51.934;7.414;2022-11-15T04:03:57;9.50;99.90
35804;DHT22;21924;51.934;7.414;2022-11-15T04:06:42;9.60;99.90
35804;DHT22;21924;51.934;7.414;2022-11-15T04:09:26;9.60;99.90
35804;DHT22;21924;51.934;7.414;2022-11-15T04:12:10;9.60;99.90
35804;DHT22;21924;51.934;7.414;2022-11-15T04:14:54;9.70;99.90
35804;DHT22;21924;51.934;7.414;2022-11-15T04:17:52;9.80;99.90
35804;DHT22;21924;51.934;7.414;2022-11-15T04:20:36;9.90;99.90
35804;DHT22;21924;51.934;7.414;2022-11-15T04:23:39;9.90;99.90
35804;DHT22;21924;51.934;7.414;2022-11-15T04:26:49;10.00;99.90
35804;DHT22;21924;51.934;7.414;2022-11-15T04:29:33;10.20;99.90
35804;DHT22;21924;51.934;7.414;2022-11-15T04:32:17;10.20;99.90
35804;DHT22;21924;51.934;7.414;2022-11-15T04:35:02;10.30;99.90
35804;DHT22;21924;51.934;7.414;2022-11-15T04:37:46;10.40;99.90
35804;DHT22;21924;51.934;7.414;2022-11-15T04:40:30;10.50;99.90
35804;DHT22;21924;51.934;7.414;2022-11-15T04:43:14;10.50;99.90
35804;DHT22;21924;51.934;7.414;2022-11-15T04:45:59;10.60;99.90
35804;DHT22;21924;51.934;7.414;2022-11-15T04:48:43;10.60;99.90
35804;DHT22;21924;51.934;7.414;2022-11-15T04:51:27;10.60;99.90
35804;DHT22;21924;51.934;7.414;2022-11-15T04:54:11;10.60;99.90
35804;DHT22;21924;51.934;7.414;2022-11-15T04:56:56;10.70;99.90
35804;DHT22;21924;51.934;7.414;2022-11-15T04:59:40;10.70;99.90
35804;DHT22;21924;51.934;7.414;2022-11-15T05:02:24;10.70;99.90
35804;DHT22;21924;51.934;7.414;2022-11-15T05:05:28;10.70;99.90
35804;DHT22;21924;51.934;7.414;2022-11-15T05:08:12;10.80;99.90
35804;DHT22;21924;51.934;7.414;2022-11-15T05:10:56;10.80;99.90
35804;DHT22;21924;51.934;7.414;2022-11-15T05:13:41;10.90;99.90
35804;DHT22;21924;51.934;7.414;2022-11-15T05:16:25;11.00;99.90
35804;DHT22;21924;51.934;7.414;2022-11-15T05:19:09;11.00;99.90
35804;DHT22;21924;51.934;7.414;2022-11-15T05:21:53;11.00;99.90
35804;DHT22;21924;51.934;7.414;2022-11-15T05:24:38;11.00;99.90
35804;DHT22;21924;51.934;7.414;2022-11-15T05:27:22;11.00;99.90
35804;DHT22;21924;51.934;7.414;2022-11-15T05:30:07;11.00;99.90
35804;DHT22;21924;51.934;7.414;2022-11-15T05:32:51;11.00;99.90
35804;DHT22;21924;51.934;7.414;2022-11-15T05:35:40;11.00;99.90
35804;DHT22;21924;51.934;7.414;2022-11-15T05:38:25;11.00;99.90
35804;DHT22;21924;51.934;7.414;2022-11-15T05:41:10;11.00;99.90
35804;DHT22;21924;51.934;7.414;2022-11-15T05:43:55;11.00;99.90
35804;DHT22;21924;51.934;7.414;2022-11-15T05:46:40;11.00;99.90
35804;DHT22;21924;51.934;7.414;2022-11-15T05:49:31;11.00;99.90
35804;DHT22;21924;51.934;7.414;2022-11-15T05:52:17;11.00;99.90
35804;DHT22;21924;51.934;7.414;2022-11-15T05:55:05;11.00;99.90
35804;DHT22;21924;51.934;7.414;2022-11-15T05:57:50;11.00;99.90
35804;DHT22;21924;51.934;7.414;2022-11-15T06:00:34;11.00;99.90
35804;DHT22;21924;51.934;7.414;2022-11-15T06:03:18;11.00;99.90
35804;DHT22;21924;51.934;7.414;2022-11-15T06:06:03;11.00;99.90
35804;DHT22;21924;51.934;7.414;2022-11-15T06:08:47;11.00;99.90
35804;DHT22;21924;51.934;7.414;2022-11-15T06:11:32;11.00;99.90
35804;DHT22;21924;51.934;7.414;2022-11-15T06:14:16;11.00;99.90
35804;DHT22;21924;51.934;7.414;2022-11-15T06:17:00;11.10;99.90
35804;DHT22;21924;51.934;7.414;2022-11-15T06:19:44;11.10;99.90
35804;DHT22;21924;51.934;7.414;2022-11-15T06:22:28;11.20;99.90
35804;DHT22;21924;51.934;7.414;2022-11-15T06:25:13;11.20;99.90
35804;DHT22;21924;51.934;7.414;2022-11-15T06:27:58;11.20;99.90
35804;DHT22;21924;51.934;7.414;2022-11-15T06:30:42;11.30;99.90
35804;DHT22;21924;51.934;7.414;2022-11-15T06:33:26;11.20;99.90
35804;DHT22;21924;51.934;7.414;2022-11-15T06:36:12;11.30;99.90
35804;DHT22;21924;51.934;7.414;2022-11-15T06:39:00;11.30;99.90
35804;DHT22;21924;51.934;7.414;2022-11-15T06:41:45;11.20;99.90
35804;DHT22;21924;51.934;7.414;2022-11-15T06:44:29;11.30;99.90
35804;DHT22;21924;51.934;7.414;2022-11-15T06:47:13;11.30;99.90
35804;DHT22;21924;51.934;7.414;2022-11-15T06:49:58;11.30;99.90
35804;DHT22;21924;51.934;7.414;2022-11-15T06:52:42;11.30;99.90
35804;DHT22;21924;51.934;7.414;2022-11-15T06:55:26;11.30;99.90
35804;DHT22;21924;51.934;7.414;2022-11-15T06:58:10;11.30;99.90
35804;DHT22;21924;51.934;7.414;2022-11-15T07:01:02;11.30;99.90
35804;DHT22;21924;51.934;7.414;2022-11-15T07:03:46;11.20;99.90
35804;DHT22;21924;51.934;7.414;2022-11-15T07:06:30;11.20;99.90
35804;DHT22;21924;51.934;7.414;2022-11-15T07:09:14;11.30;99.90
35804;DHT22;21924;51.934;7.414;2022-11-15T07:11:59;11.30;99.90
35804;DHT22;21924;51.934;7.414;2022-11-15T07:14:43;11.30;99.90
35804;DHT22;21924;51.934;7.414;2022-11-15T07:17:27;11.30;99.90
35804;DHT22;21924;51.934;7.414;2022-11-15T07:20:12;11.30;99.90
35804;DHT22;21924;51.934;7.414;2022-11-15T07:23:03;11.30;99.90
35804;DHT22;21924;51.934;7.414;2022-11-15T07:25:48;11.30;99.90
35804;DHT22;21924;51.934;7.414;2022-11-15T07:28:33;11.30;99.90
35804;DHT22;21924;51.934;7.414;2022-11-15T07:31:17;11.30;99.90
35804;DHT22;21924;51.934;7.414;2022-11-15T07:34:02;11.40;99.90
35804;DHT22;21924;51.934;7.414;2022-11-15T07:36:46;11.40;99.90
35804;DHT22;21924;51.934;7.414;2022-11-15T07:39:30;11.40;99.90
35804;DHT22;21924;51.934;7.414;2022-11-15T07:42:14;11.30;99.90
35804;DHT22;21924;51.934;7.414;2022-11-15T07:45:18;11.30;99.90
35804;DHT22;21924;51.934;7.414;2022-11-15T07:48:03;11.30;99.90
35804;DHT22;21924;51.934;7.414;2022-11-15T07:50:47;11.30;99.90
35804;DHT22;21924;51.934;7.414;2022-11-15T07:53:32;11.40;99.90
35804;DHT22;21924;51.934;7.414;2022-11-15T07:56:16;11.40;99.90
35804;DHT22;21924;51.934;7.414;2022-11-15T07:59:00;11.40;99.90
35804;DHT22;21924;51.934;7.414;2022-11-15T08:01:45;11.40;99.90
35804;DHT22;21924;51.934;7.414;2022-11-15T08:04:29;11.40;99.90
35804;DHT22;21924;51.934;7.414;2022-11-15T08:07:13;11.40;99.90
35804;DHT22;21924;51.934;7.414;2022-11-15T08:09:58;11.40;99.90
35804;DHT22;21924;51.934;7.414;2022-11-15T08:12:42;11.40;99.90
35804;DHT22;21924;51.934;7.414;2022-11-15T08:15:27;11.40;99.90
35804;DHT22;21924;51.934;7.414;2022-11-15T08:18:15;11.50;99.90
35804;DHT22;21924;51.934;7.414;2022-11-15T08:21:01;11.50;99.90
35804;DHT22;21924;51.934;7.414;2022-11-15T08:23:45;11.60;99.90
35804;DHT22;21924;51.934;7.414;2022-11-15T08:26:30;11.50;99.90
35804;DHT22;21924;51.934;7.414;2022-11-15T08:29:14;11.60;99.90
35804;DHT22;21924;51.934;7.414;2022-11-15T08:31:58;11.70;99.90
35804;DHT22;21924;51.934;7.414;2022-11-15T08:34:43;11.60;99.90
35804;DHT22;21924;51.934;7.414;2022-11-15T08:37:27;11.70;99.90
35804;DHT22;21924;51.934;7.414;2022-11-15T08:40:11;11.70;99.90
35804;DHT22;21924;51.934;7.414;2022-11-15T08:42:56;11.80;99.90
35804;DHT22;21924;51.934;7.414;2022-11-15T08:45:40;11.90;99.90
35804;DHT22;21924;51.934;7.414;2022-11-15T08:48:24;12.00;99.90
35804;DHT22;21924;51.934;7.414;2022-11-15T08:51:09;12.10;99.90
35804;DHT22;21924;51.934;7.414;2022-11-15T08:53:53;12.10;99.90
35804;DHT22;21924;51.934;7.414;2022-11-15T08:56:37;12.20;99.90
35804;DHT22;21924;51.934;7.414;2022-11-15T08:59:22;12.30;99.90
35804;DHT22;21924;51.934;7.414;2022-11-15T09:02:10;12.30;99.90
35804;DHT22;21924;51.934;7.414;2022-11-15T09:04:55;12.40;99.90
35804;DHT22;21924;51.934;7.414;2022-11-15T09:07:39;12.40;99.90
35804;DHT22;21924;51.934;7.414;2022-11-15T09:10:23;12.40;99.90
35804;DHT22;21924;51.934;7.414;2022-11-15T09:13:08;12.40;99.90
35804;DHT22;21924;51.934;7.414;2022-11-15T09:15:57;12.40;99.90
35804;DHT22;21924;51.934;7.414;2022-11-15T09:18:43;12.50;99.90
35804;DHT22;21924;51.934;7.414;2022-11-15T09:21:28;12.60;99.90
35804;DHT22;21924;51.934;7.414;2022-11-15T09:24:13;12.60;99.90
35804;DHT22;21924;51.934;7.414;2022-11-15T09:26:57;12.60;99.90
35804;DHT22;21924;51.934;7.414;2022-11-15T09:29:42;12.70;99.90
35804;DHT22;21924;51.934;7.414;2022-11-15T09:32:28;12.60;99.90
35804;DHT22;21924;51.934;7.414;2022-11-15T09:35:14;12.70;99.90
35804;DHT22;21924;51.934;7.414;2022-11-15T09:37:58;12.60;99.90
35804;DHT22;21924;51.934;7.414;2022-11-15T09:40:42;12.60;99.90
35804;DHT22;21924;51.934;7.414;2022-11-15T09:46:59;12.70;99.90
35804;DHT22;21924;51.934;7.414;2022-11-15T09:49:52;12.90;99.90
35804;DHT22;21924;51.934;7.414;2022-11-15T09:52:39;12.90;99.90
35804;DHT22;21924;51.934;7.414;2022-11-15T09:55:36;12.90;99.90
35804;DHT22;21924;51.934;7.414;2022-11-15T10:04:51;12.60;99.90
35804;DHT22;21924;51.934;7.414;2022-11-15T10:07:57;12.50;99.90
35804;DHT22;21924;51.934;7.414;2022-11-15T10:10:46;12.40;99.90
35804;DHT22;21924;51.934;7.414;2022-11-15T10:13:34;12.30;99.90
35804;DHT22;21924;51.934;7.414;2022-11-15T10:16:28;12.30;99.90
35804;DHT22;21924;51.934;7.414;2022-11-15T10:19:49;12.40;99.90
35804;DHT22;21924;51.934;7.414;2022-11-15T10:22:44;12.40;99.90
35804;DHT22;21924;51.934;7.414;2022-11-15T10:25:33;12.70;99.90
35804;DHT22;21924;51.934;7.414;2022-11-15T10:28:21;13.00;99.90
35804;DHT22;21924;51.934;7.414;2022-11-15T10:31:27;13.20;99.90
35804;DHT22;21924;51.934;7.414;2022-11-15T10:34:12;13.10;99.90
35804;DHT22;21924;51.934;7.414;2022-11-15T10:36:59;13.10;99.90
35804;DHT22;21924;51.934;7.414;2022-11-15T10:40:12;13.20;99.90
35804;DHT22;21924;51.934;7.414;2022-11-15T10:45:53;13.10;99.90
35804;DHT22;21924;51.934;7.414;2022-11-15T10:48:38;13.20;99.90
35804;DHT22;21924;51.934;7.414;2022-11-15T10:51:27;13.30;99.90
35804;DHT22;21924;51.934;7.414;2022-11-15T10:54:14;13.40;99.90
35804;DHT22;21924;51.934;7.414;2022-11-15T10:57:17;13.50;99.90
35804;DHT22;21924;51.934;7.414;2022-11-15T11:03:31;13.80;99.90
35804;DHT22;21924;51.934;7.414;2022-11-15T11:06:18;14.00;99.90
35804;DHT22;21924;51.934;7.414;2022-11-15T11:09:05;14.10;99.90
35804;DHT22;21924;51.934;7.414;2022-11-15T11:11:51;14.20;99.90
35804;DHT22;21924;51.934;7.414;2022-11-15T11:14:37;14.20;99.90
35804;DHT22;21924;51.934;7.414;2022-11-15T11:26:46;13.90;99.90
35804;DHT22;21924;51.934;7.414;2022-11-15T11:29:46;13.80;99.90
35804;DHT22;21924;51.934;7.414;2022-11-15T11:33:10;13.80;99.90
35804;DHT22;21924;51.934;7.414;2022-11-15T11:47:47;14.10;99.90
35804;DHT22;21924;51.934;7.414;2022-11-15T11:50:34;14.10;99.90
35804;DHT22;21924;51.934;7.414;2022-11-15T11:56:28;14.10;99.90
35804;DHT22;21924;51.934;7.414;2022-11-15T11:59:23;14.30;99.90
35804;DHT22;21924;51.934;7.414;2022-11-15T12:02:19;14.30;99.90
35804;DHT22;21924;51.934;7.414;2022-11-15T12:05:13;14.30;99.90
35804;DHT22;21924;51.934;7.414;2022-11-15T12:08:14;14.20;99.90
35804;DHT22;21924;51.934;7.414;2022-11-15T12:11:14;14.20;99.90
35804;DHT22;21924;51.934;7.414;2022-11-15T12:14:02;14.10;99.90
35804;DHT22;21924;51.934;7.414;2022-11-15T12:16:47;14.20;99.90
35804;DHT22;21924;51.934;7.414;2022-11-15T12:19:32;14.20;99.90
35804;DHT22;21924;51.934;7.414;2022-11-15T12:22:20;14.20;99.90
35804;DHT22;21924;51.934;7.414;2022-11-15T12:25:41;14.20;99.90
35804;DHT22;21924;51.934;7.414;2022-11-15T12:28:36;14.20;99.90
35804;DHT22;21924;51.934;7.414;2022-11-15T12:41:18;14.00;99.90
35804;DHT22;21924;51.934;7.414;2022-11-15T12:44:04;13.90;99.90
35804;DHT22;21924;51.934;7.414;2022-11-15T12:52:20;13.90;99.90
35804;DHT22;21924;51.934;7.414;2022-11-15T12:55:31;13.90;99.90
35804;DHT22;21924;51.934;7.414;2022-11-15T13:07:05;14.00;99.90
35804;DHT22;21924;51.934;7.414;2022-11-15T13:09:52;14.00;99.90
35804;DHT22;21924;51.934;7.414;2022-11-15T13:12:49;13.90;99.90
35804;DHT22;21924;51.934;7.414;2022-11-15T13:16:03;13.90;99.90
35804;DHT22;21924;51.934;7.414;2022-11-15T13:18:58;13.80;99.90
35804;DHT22;21924;51.934;7.414;2022-11-15T13:21:49;13.70;99.90
35804;DHT22;21924;51.934;7.414;2022-11-15T13:24:52;13.70;99.90
35804;DHT22;21924;51.934;7.414;2022-11-15T13:27:36;13.80;99.90
35804;DHT22;21924;51.934;7.414;2022-11-15T13:30:28;13.80;99.90
35804;DHT22;21924;51.934;7.414;2022-11-15T13:33:39;13.60;99.90
35804;DHT22;21924;51.934;7.414;2022-11-15T13:36:25;13.70;99.90
35804;DHT22;21924;51.934;7.414;2022-11-15T13:39:29;13.60;99.90
35804;DHT22;21924;51.934;7.414;2022-11-15T13:42:19;13.70;99.90
35804;DHT22;21924;51.934;7.414;2022-11-15T13:45:04;13.70;99.90
35804;DHT22;21924;51.934;7.414;2022-11-15T13:47:57;13.60;99.90
35804;DHT22;21924;51.934;7.414;2022-11-15T13:50:42;13.50;99.90
35804;DHT22;21924;51.934;7.414;2022-11-15T13:53:27;13.50;99.90
35804;DHT22;21924;51.934;7.414;2022-11-15T13:56:11;13.60;99.90
35804;DHT22;21924;51.934;7.414;2022-11-15T13:58:56;13.50;99.90
35804;DHT22;21924;51.934;7.414;2022-11-15T14:01:42;13.50;99.90
35804;DHT22;21924;51.934;7.414;2022-11-15T14:04:27;13.40;99.90
35804;DHT22;21924;51.934;7.414;2022-11-15T14:07:20;13.40;99.90
35804;DHT22;21924;51.934;7.414;2022-11-15T14:10:34;13.40;99.90
35804;DHT22;21924;51.934;7.414;2022-11-15T14:13:30;13.40;99.90
35804;DHT22;21924;51.934;7.414;2022-11-15T14:16:20;13.30;99.90
35804;DHT22;21924;51.934;7.414;2022-11-15T14:19:06;13.30;99.90
35804;DHT22;21924;51.934;7.414;2022-11-15T14:22:18;13.20;99.90
35804;DHT22;21924;51.934;7.414;2022-11-15T14:31:11;13.00;99.90
35804;DHT22;21924;51.934;7.414;2022-11-15T14:33:56;12.90;99.90
35804;DHT22;21924;51.934;7.414;2022-11-15T14:36:41;12.90;99.90
35804;DHT22;21924;51.934;7.414;2022-11-15T14:39:25;12.90;99.90
35804;DHT22;21924;51.934;7.414;2022-11-15T14:42:09;12.80;99.90
35804;DHT22;21924;51.934;7.414;2022-11-15T14:44:54;12.80;99.90
35804;DHT22;21924;51.934;7.414;2022-11-15T14:47:38;12.80;99.90
35804;DHT22;21924;51.934;7.414;2022-11-15T14:50:22;12.80;99.90
35804;DHT22;21924;51.934;7.414;2022-11-15T14:53:06;12.70;99.90
35804;DHT22;21924;51.934;7.414;2022-11-15T14:55:51;12.70;99.90
35804;DHT22;21924;51.934;7.414;2022-11-15T14:58:35;12.60;99.90
35804;DHT22;21924;51.934;7.414;2022-11-15T15:01:23;12.50;99.90
35804;DHT22;21924;51.934;7.414;2022-11-15T15:04:09;12.40;99.90
35804;DHT22;21924;51.934;7.414;2022-11-15T15:06:53;12.40;99.90
35804;DHT22;21924;51.934;7.414;2022-11-15T15:09:38;12.30;99.90
35804;DHT22;21924;51.934;7.414;2022-11-15T15:12:23;12.30;99.90
35804;DHT22;21924;51.934;7.414;2022-11-15T15:15:31;12.20;99.90
35804;DHT22;21924;51.934;7.414;2022-11-15T15:18:17;12.10;99.90
35804;DHT22;21924;51.934;7.414;2022-11-15T15:21:02;12.20;99.90
35804;DHT22;21924;51.934;7.414;2022-11-15T15:23:51;12.10;99.90
35804;DHT22;21924;51.934;7.414;2022-11-15T15:26:38;12.10;99.90
35804;DHT22;21924;51.934;7.414;2022-11-15T15:29:22;12.00;99.90
35804;DHT22;21924;51.934;7.414;2022-11-15T15:32:08;12.00;99.90
35804;DHT22;21924;51.934;7.414;2022-11-15T15:34:53;12.10;99.90
35804;DHT22;21924;51.934;7.414;2022-11-15T15:37:37;12.10;99.90
35804;DHT22;21924;51.934;7.414;2022-11-15T15:40:23;12.10;99.90
35804;DHT22;21924;51.934;7.414;2022-11-15T15:43:07;12.00;99.90
35804;DHT22;21924;51.934;7.414;2022-11-15T15:45:53;12.00;99.90
35804;DHT22;21924;51.934;7.414;2022-11-15T15:48:37;12.00;99.90
35804;DHT22;21924;51.934;7.414;2022-11-15T15:51:23;11.90;99.90
35804;DHT22;21924;51.934;7.414;2022-11-15T15:54:07;11.90;99.90
35804;DHT22;21924;51.934;7.414;2022-11-15T15:56:52;12.00;99.90
35804;DHT22;21924;51.934;7.414;2022-11-15T15:59:36;12.00;99.90
35804;DHT22;21924;51.934;7.414;2022-11-15T16:02:21;12.00;99.90
35804;DHT22;21924;51.934;7.414;2022-11-15T16:05:05;12.00;99.90
35804;DHT22;21924;51.934;7.414;2022-11-15T16:07:50;12.00;99.90
35804;DHT22;21924;51.934;7.414;2022-11-15T16:10:34;12.00;99.90
35804;DHT22;21924;51.934;7.414;2022-11-15T16:13:18;12.00;99.90
35804;DHT22;21924;51.934;7.414;2022-11-15T16:16:04;11.90;99.90
35804;DHT22;21924;51.934;7.414;2022-11-15T16:18:52;11.90;99.90
35804;DHT22;21924;51.934;7.414;2022-11-15T16:21:37;11.80;99.90
35804;DHT22;21924;51.934;7.414;2022-11-15T16:24:22;11.80;99.90
35804;DHT22;21924;51.934;7.414;2022-11-15T16:27:13;11.70;99.90
35804;DHT22;21924;51.934;7.414;2022-11-15T16:29:58;11.70;99.90
35804;DHT22;21924;51.934;7.414;2022-11-15T16:32:42;11.70;99.90
35804;DHT22;21924;51.934;7.414;2022-11-15T16:35:26;11.60;99.90
35804;DHT22;21924;51.934;7.414;2022-11-15T16:38:15;11.60;99.90
35804;DHT22;21924;51.934;7.414;2022-11-15T16:40:59;11.60;99.90
35804;DHT22;21924;51.934;7.414;2022-11-15T16:43:45;11.60;99.90
35804;DHT22;21924;51.934;7.414;2022-11-15T16:46:29;11.60;99.90
35804;DHT22;21924;51.934;7.414;2022-11-15T16:49:14;11.70;99.90
35804;DHT22;21924;51.934;7.414;2022-11-15T16:51:58;11.70;99.90
35804;DHT22;21924;51.934;7.414;2022-11-15T16:54:43;11.70;99.90
35804;DHT22;21924;51.934;7.414;2022-11-15T16:57:27;11.70;99.90
35804;DHT22;21924;51.934;7.414;2022-11-15T17:00:11;11.80;99.90
35804;DHT22;21924;51.934;7.414;2022-11-15T17:02:59;11.80;99.90
35804;DHT22;21924;51.934;7.414;2022-11-15T17:05:43;11.80;99.90
35804;DHT22;21924;51.934;7.414;2022-11-15T17:08:28;11.80;99.90
35804;DHT22;21924;51.934;7.414;2022-11-15T17:11:18;11.80;99.90
35804;DHT22;21924;51.934;7.414;2022-11-15T17:14:02;11.80;99.90
35804;DHT22;21924;51.934;7.414;2022-11-15T17:16:46;11.80;99.90
35804;DHT22;21924;51.934;7.414;2022-11-15T17:19:31;11.80;99.90
35804;DHT22;21924;51.934;7.414;2022-11-15T17:22:15;11.80;99.90
35804;DHT22;21924;51.934;7.414;2022-11-15T17:24:59;11.80;99.90
35804;DHT22;21924;51.934;7.414;2022-11-15T17:27:44;11.80;99.90
35804;DHT22;21924;51.934;7.414;2022-11-15T17:30:28;11.70;99.90
35804;DHT22;21924;51.934;7.414;2022-11-15T17:33:12;11.80;99.90
35804;DHT22;21924;51.934;7.414;2022-11-15T17:35:58;11.70;99.90
35804;DHT22;21924;51.934;7.414;2022-11-15T17:38:43;11.80;99.90
35804;DHT22;21924;51.934;7.414;2022-11-15T17:41:28;11.80;99.90
35804;DHT22;21924;51.934;7.414;2022-11-15T17:44:12;11.80;99.90
35804;DHT22;21924;51.934;7.414;2022-11-15T17:46:57;11.80;99.90
35804;DHT22;21924;51.934;7.414;2022-11-15T17:49:41;11.80;99.90
35804;DHT22;21924;51.934;7.414;2022-11-15T17:52:25;11.90;99.90
35804;DHT22;21924;51.934;7.414;2022-11-15T17:55:09;11.80;99.90
35804;DHT22;21924;51.934;7.414;2022-11-15T17:57:54;11.80;99.90
35804;DHT22;21924;51.934;7.414;2022-11-15T18:00:38;11.80;99.90
35804;DHT22;21924;51.934;7.414;2022-11-15T18:03:22;11.80;99.90
35804;DHT22;21924;51.934;7.414;2022-11-15T18:06:07;11.80;99.90
35804;DHT22;21924;51.934;7.414;2022-11-15T18:08:53;11.80;99.90
35804;DHT22;21924;51.934;7.414;2022-11-15T18:11:41;11.80;99.90
35804;DHT22;21924;51.934;7.414;2022-11-15T18:14:26;11.80;99.90
35804;DHT22;21924;51.934;7.414;2022-11-15T18:17:10;11.80;99.90
35804;DHT22;21924;51.934;7.414;2022-11-15T18:19:55;11.80;99.90
35804;DHT22;21924;51.934;7.414;2022-11-15T18:22:39;11.80;99.90
35804;DHT22;21924;51.934;7.414;2022-11-15T18:25:23;11.80;99.90
35804;DHT22;21924;51.934;7.414;2022-11-15T18:28:07;11.80;99.90
35804;DHT22;21924;51.934;7.414;2022-11-15T18:30:51;11.80;99.90
35804;DHT22;21924;51.934;7.414;2022-11-15T18:33:36;11.80;99.90
35804;DHT22;21924;51.934;7.414;2022-11-15T18:36:22;11.80;99.90
35804;DHT22;21924;51.934;7.414;2022-11-15T18:39:08;11.80;99.90
35804;DHT22;21924;51.934;7.414;2022-11-15T18:41:53;11.80;99.90
35804;DHT22;21924;51.934;7.414;2022-11-15T18:44:38;11.80;99.90
35804;DHT22;21924;51.934;7.414;2022-11-15T18:47:22;11.80;99.90
35804;DHT22;21924;51.934;7.414;2022-11-15T18:50:06;11.80;99.90
35804;DHT22;21924;51.934;7.414;2022-11-15T18:52:51;11.90;99.90
35804;DHT22;21924;51.934;7.414;2022-11-15T18:55:35;11.80;99.90
35804;DHT22;21924;51.934;7.414;2022-11-15T18:58:20;11.80;99.90
35804;DHT22;21924;51.934;7.414;2022-11-15T19:01:08;11.90;99.90
35804;DHT22;21924;51.934;7.414;2022-11-15T19:03:54;11.90;99.90
35804;DHT22;21924;51.934;7.414;2022-11-15T19:06:41;12.00;99.90
35804;DHT22;21924;51.934;7.414;2022-11-15T19:09:25;11.90;99.90
35804;DHT22;21924;51.934;7.414;2022-11-15T19:12:15;11.90;99.90
35804;DHT22;21924;51.934;7.414;2022-11-15T19:14:59;11.90;99.90
35804;DHT22;21924;51.934;7.414;2022-11-15T19:17:43;11.90;99.90
35804;DHT22;21924;51.934;7.414;2022-11-15T19:20:28;11.90;99.90